Camanducaia, Brazil
Current Conditions -  °F | °C
As of 1:00 PM on Friday 24 Oct 2014 (Local Time) from SBSJ Reporting Station
Clear Clear  
Wind Chill: 90°   Ceiling: Unl
Heat Index: 90°   Visibility: 6mi
Dew Point: 57°   Wind: 3mph
Humidity: 33%   Direction: 240°WSW
Pressure: 30.03"   Gusts: NA
Location:  22.76°S, 46.14°W
Report Text: SBSJ 241500Z 24003KT CAVOK 32/14 Q1017
Loading
Personal Weather Stations






























Interactive Weather Map
Tropical Storm Tracking
New forecast layout! Learn more

10-Day Weather Forecast

Advertisements
Track Severe Weather on mobile